createdAt,value
2023-02-11T00:00:44.742Z,95741.00
2023-02-11T00:03:11.463Z,95736.47
2023-02-11T00:05:38.177Z,95743.38
2023-02-11T00:08:05.018Z,95744.41
2023-02-11T00:10:31.692Z,95736.41
2023-02-11T00:12:58.314Z,95730.88
2023-02-11T00:15:24.959Z,95752.16
2023-02-11T00:17:51.617Z,95743.75
2023-02-11T00:20:18.264Z,95746.97
2023-02-11T00:22:45.429Z,95751.00
2023-02-11T00:25:12.043Z,95740.16
2023-02-11T00:27:38.695Z,95752.50
2023-02-11T00:30:05.743Z,95741.94
2023-02-11T00:32:32.836Z,95750.31
2023-02-11T00:34:59.512Z,95745.59
2023-02-11T00:37:26.123Z,95745.69
2023-02-11T00:39:52.757Z,95737.81
2023-02-11T00:42:19.425Z,95738.81
2023-02-11T00:44:46.025Z,95740.88
2023-02-11T00:47:12.827Z,95735.41
2023-02-11T00:49:40.453Z,95730.69
2023-02-11T00:52:07.576Z,95729.69
2023-02-11T00:54:34.265Z,95730.66
2023-02-11T00:57:01.156Z,95731.75
2023-02-11T00:59:28.112Z,95727.09
2023-02-11T01:01:54.807Z,95732.22
2023-02-11T01:04:21.538Z,95727.91
2023-02-11T01:06:48.141Z,95730.28
2023-02-11T01:09:16.115Z,95728.56
2023-02-11T01:11:42.757Z,95718.31
2023-02-11T01:14:09.480Z,95726.78
2023-02-11T01:16:36.215Z,95723.81
2023-02-11T01:19:03.030Z,95713.56
2023-02-11T01:21:29.720Z,95721.09
2023-02-11T01:23:56.324Z,95721.25
2023-02-11T01:26:22.929Z,95709.28
2023-02-11T01:28:49.574Z,95715.78
2023-02-11T01:31:16.230Z,95715.59
2023-02-11T01:33:43.050Z,95718.09
2023-02-11T01:36:11.311Z,95720.34
2023-02-11T01:38:38.232Z,95708.19
2023-02-11T01:41:08.365Z,95709.97
2023-02-11T01:43:55.047Z,95707.56
2023-02-11T01:46:38.014Z,95709.59
2023-02-11T01:49:09.596Z,95700.97
2023-02-11T01:51:47.358Z,95711.25
2023-02-11T01:54:36.958Z,95703.16
2023-02-11T01:57:24.957Z,95692.81
2023-02-11T02:00:09.854Z,95694.91
2023-02-11T02:03:02.416Z,95700.78
2023-02-11T02:05:35.778Z,95700.53
2023-02-11T02:08:29.557Z,95709.59
2023-02-11T02:10:58.526Z,95699.44
2023-02-11T02:13:25.973Z,95701.88
2023-02-11T02:15:55.198Z,95712.88
2023-02-11T02:18:32.423Z,95708.75
2023-02-11T02:21:08.134Z,95700.78
2023-02-11T02:23:59.456Z,95704.06
2023-02-11T02:26:57.147Z,95711.75
2023-02-11T02:29:43.943Z,95711.25
2023-02-11T02:32:31.743Z,95709.66
2023-02-11T02:35:13.602Z,95705.66
2023-02-11T02:37:51.226Z,95706.28
2023-02-11T02:40:28.632Z,95706.50
2023-02-11T02:42:56.394Z,95701.25
2023-02-11T02:45:23.131Z,95697.31
2023-02-11T02:47:49.756Z,95704.34
2023-02-11T02:50:20.881Z,95698.19
2023-02-11T02:53:04.030Z,95703.09
2023-02-11T02:55:42.969Z,95705.81
2023-02-11T02:58:40.612Z,95701.91
2023-02-11T03:01:19.020Z,95695.34
2023-02-11T03:04:14.665Z,95703.41
2023-02-11T03:06:41.212Z,95697.59
2023-02-11T03:09:16.307Z,95698.75
2023-02-11T03:11:43.004Z,95693.59
2023-02-11T03:14:14.919Z,95694.09
2023-02-11T03:16:43.671Z,95705.09
2023-02-11T03:19:24.592Z,95701.34
2023-02-11T03:21:53.415Z,95702.97
2023-02-11T03:24:30.784Z,95702.84
2023-02-11T03:27:02.075Z,95694.97
2023-02-11T03:29:54.299Z,95697.28
2023-02-11T03:32:38.698Z,95688.94
2023-02-11T03:35:20.232Z,95697.81
2023-02-11T03:37:52.070Z,95695.44
2023-02-11T03:40:26.334Z,95688.91
2023-02-11T03:43:21.183Z,95691.28
2023-02-11T03:45:50.991Z,95691.69
2023-02-11T03:48:23.741Z,95694.59
2023-02-11T03:50:52.404Z,95692.41
2023-02-11T03:53:21.916Z,95692.47
2023-02-11T03:55:52.457Z,95692.13
2023-02-11T03:58:19.555Z,95691.81
2023-02-11T04:00:46.407Z,95704.44
2023-02-11T04:03:13.806Z,95698.00
2023-02-11T04:05:40.946Z,95693.81
2023-02-11T04:08:07.941Z,95695.09
2023-02-11T04:10:34.793Z,95695.22
2023-02-11T04:13:01.913Z,95700.22
2023-02-11T04:15:28.563Z,95693.69
2023-02-11T04:17:55.135Z,95691.94
2023-02-11T04:20:21.893Z,95692.81
2023-02-11T04:22:48.505Z,95691.34
2023-02-11T04:25:15.107Z,95692.59
2023-02-11T04:27:41.756Z,95690.09
2023-02-11T04:30:09.628Z,95691.22
2023-02-11T04:32:36.333Z,95687.63
2023-02-11T04:35:03.621Z,95688.72
2023-02-11T04:37:30.354Z,95684.63
2023-02-11T04:39:57.038Z,95690.13
2023-02-11T04:42:24.475Z,95681.59
2023-02-11T04:44:51.139Z,95682.16
2023-02-11T04:47:17.828Z,95674.63
2023-02-11T04:49:44.432Z,95680.63
2023-02-11T04:52:11.183Z,95687.03
2023-02-11T04:54:37.902Z,95684.97
2023-02-11T04:57:04.556Z,95674.41
2023-02-11T04:59:31.181Z,95683.13
2023-02-11T05:01:58.000Z,95675.25
2023-02-11T05:04:24.962Z,95674.94
2023-02-11T05:06:51.645Z,95675.28
2023-02-11T05:09:18.496Z,95671.19
2023-02-11T05:11:45.102Z,95668.34
2023-02-11T05:14:11.731Z,95665.53
2023-02-11T05:16:38.445Z,95658.78
2023-02-11T05:19:05.348Z,95659.91
2023-02-11T05:21:32.037Z,95660.72
2023-02-11T05:23:58.796Z,95658.44
2023-02-11T05:26:25.754Z,95665.06
2023-02-11T05:28:52.553Z,95676.50
2023-02-11T05:31:19.251Z,95671.91
2023-02-11T05:33:46.085Z,95671.81
2023-02-11T05:36:13.682Z,95674.56
2023-02-11T05:38:40.802Z,95659.59
2023-02-11T05:41:07.612Z,95662.78
2023-02-11T05:43:35.475Z,95670.50
2023-02-11T05:46:03.619Z,95667.56
2023-02-11T05:48:30.964Z,95665.63
2023-02-11T05:50:57.833Z,95666.06
2023-02-11T05:53:24.452Z,95670.97
2023-02-11T05:55:51.578Z,95666.06
2023-02-11T05:58:18.459Z,95663.25
2023-02-11T06:00:45.117Z,95671.53
2023-02-11T06:03:11.784Z,95674.16
2023-02-11T06:05:39.476Z,95675.75
2023-02-11T06:08:06.561Z,95673.72
2023-02-11T06:10:33.282Z,95679.50
2023-02-11T06:12:59.862Z,95680.09
2023-02-11T06:15:26.566Z,95686.72
2023-02-11T06:17:53.407Z,95687.97
2023-02-11T06:20:20.260Z,95683.38
2023-02-11T06:22:47.140Z,95684.75
2023-02-11T06:25:14.587Z,95692.41
2023-02-11T06:27:41.283Z,95684.06
2023-02-11T06:30:08.901Z,95686.47
2023-02-11T06:32:43.741Z,95677.81
2023-02-11T06:35:12.589Z,95677.69
2023-02-11T06:37:40.176Z,95684.50
2023-02-11T06:40:07.659Z,95688.63
2023-02-11T06:42:36.228Z,95687.25
2023-02-11T06:45:03.470Z,95688.97
2023-02-11T06:47:30.138Z,95692.38
2023-02-11T06:49:56.776Z,95696.13
2023-02-11T06:52:23.419Z,95697.38
2023-02-11T06:54:49.969Z,95688.47
2023-02-11T06:57:16.601Z,95688.75
2023-02-11T06:59:43.430Z,95689.63
2023-02-11T07:02:10.976Z,95693.94
2023-02-11T07:04:38.100Z,95701.13
2023-02-11T07:07:04.775Z,95698.19
2023-02-11T07:09:31.357Z,95695.34
2023-02-11T07:11:58.105Z,95687.19
2023-02-11T07:14:24.786Z,95679.56
2023-02-11T07:16:51.490Z,95688.94
2023-02-11T07:19:18.141Z,95679.63
2023-02-11T07:21:44.721Z,95675.44
2023-02-11T07:24:11.645Z,95674.69
2023-02-11T07:26:38.766Z,95674.69
2023-02-11T07:29:05.625Z,95677.22
2023-02-11T07:31:33.073Z,95674.88
2023-02-11T07:34:01.853Z,95662.31
2023-02-11T07:36:30.464Z,95664.13
2023-02-11T07:38:57.206Z,95656.28
2023-02-11T07:41:25.333Z,95653.00
2023-02-11T07:43:52.222Z,95648.59
2023-02-11T07:46:26.325Z,95653.88
2023-02-11T07:48:53.782Z,95646.66
2023-02-11T07:51:26.533Z,95646.09
2023-02-11T07:53:53.795Z,95647.28
2023-02-11T07:56:21.750Z,95647.69
2023-02-11T07:58:48.592Z,95651.25
2023-02-11T08:01:25.893Z,95651.56
2023-02-11T08:03:53.087Z,95650.59
2023-02-11T08:06:21.719Z,95656.19
2023-02-11T08:08:49.512Z,95654.13
2023-02-11T08:11:28.216Z,95647.50
2023-02-11T08:13:56.987Z,95655.44
2023-02-11T08:16:35.634Z,95649.28
2023-02-11T08:19:07.269Z,95652.91
2023-02-11T08:21:33.975Z,95649.88
2023-02-11T08:24:01.678Z,95647.56
2023-02-11T08:26:29.902Z,95655.78
2023-02-11T08:28:57.602Z,95656.97
2023-02-11T08:31:27.515Z,95653.09
2023-02-11T08:33:55.050Z,95651.72
2023-02-11T08:36:23.777Z,95649.84
2023-02-11T08:38:50.456Z,95659.41
2023-02-11T08:41:18.035Z,95653.38
2023-02-11T08:43:46.204Z,95659.69
2023-02-11T08:46:15.784Z,95647.28
2023-02-11T08:48:43.275Z,95658.78
2023-02-11T08:51:31.610Z,95653.69
2023-02-11T08:53:59.272Z,95650.59
2023-02-11T08:56:26.224Z,95650.81
2023-02-11T08:58:53.786Z,95643.88
2023-02-11T09:01:24.453Z,95652.44
2023-02-11T09:03:51.535Z,95654.19
2023-02-11T09:06:18.757Z,95642.63
2023-02-11T09:08:49.428Z,95636.00
2023-02-11T09:11:18.447Z,95648.16
2023-02-11T09:13:45.450Z,95631.19
2023-02-11T09:16:23.338Z,95642.69
2023-02-11T09:18:50.862Z,95635.38
2023-02-11T09:21:19.326Z,95639.41
2023-02-11T09:23:47.957Z,95627.00
2023-02-11T09:26:17.068Z,95620.16
2023-02-11T09:28:43.738Z,95621.47
2023-02-11T09:31:12.904Z,95630.59
2023-02-11T09:33:42.277Z,95620.94
2023-02-11T09:36:09.328Z,95621.19
2023-02-11T09:38:35.925Z,95618.63
2023-02-11T09:41:07.608Z,95620.75
2023-02-11T09:43:45.110Z,95615.19
2023-02-11T09:46:17.252Z,95604.72
2023-02-11T09:48:46.700Z,95604.38
2023-02-11T09:51:20.843Z,95598.84
2023-02-11T09:53:57.656Z,95600.16
2023-02-11T09:56:26.831Z,95602.31
2023-02-11T09:58:53.652Z,95586.41
2023-02-11T10:01:38.054Z,95582.59
2023-02-11T10:04:07.771Z,95578.88
2023-02-11T10:06:46.890Z,95571.47
2023-02-11T10:09:26.167Z,95571.03
2023-02-11T10:12:11.339Z,95563.63
2023-02-11T10:15:02.842Z,95556.50
2023-02-11T10:18:04.534Z,95560.34
2023-02-11T10:20:34.147Z,95546.34
2023-02-11T10:23:08.577Z,95540.50
2023-02-11T10:25:45.215Z,95531.66
2023-02-11T10:28:15.834Z,95522.28
2023-02-11T10:31:07.081Z,95516.56
2023-02-11T10:33:40.046Z,95499.44
2023-02-11T10:36:07.183Z,95490.72
2023-02-11T10:38:33.961Z,95486.91
2023-02-11T10:41:00.618Z,95475.34
2023-02-11T10:43:30.830Z,95477.00
2023-02-11T10:45:58.888Z,95472.25
2023-02-11T10:48:49.522Z,95470.56
2023-02-11T10:51:28.386Z,95465.75
2023-02-11T10:54:04.211Z,95468.59
2023-02-11T10:56:34.363Z,95463.41
2023-02-11T10:59:34.609Z,95464.56
2023-02-11T11:02:06.114Z,95455.13
2023-02-11T11:04:42.544Z,95447.19
2023-02-11T11:07:18.282Z,95442.69
2023-02-11T11:09:48.224Z,95443.81
2023-02-11T11:12:58.367Z,95439.31
2023-02-11T11:15:31.162Z,95429.09
2023-02-11T11:18:23.279Z,95439.81
2023-02-11T11:20:59.701Z,95427.22
2023-02-11T11:23:29.554Z,95435.94
2023-02-11T11:26:16.291Z,95433.78
2023-02-11T11:29:08.138Z,95428.00
2023-02-11T11:31:45.146Z,95429.84
2023-02-11T11:34:48.490Z,95435.13
2023-02-11T11:37:21.499Z,95415.34
2023-02-11T11:40:13.885Z,95409.81
2023-02-11T11:42:41.082Z,95407.41
2023-02-11T11:45:19.733Z,95408.16
2023-02-11T11:48:10.952Z,95410.47
2023-02-11T11:50:43.552Z,95414.03
2023-02-11T11:53:23.467Z,95399.72
2023-02-11T11:56:09.291Z,95400.41
2023-02-11T11:58:35.959Z,95389.97
2023-02-11T12:01:11.295Z,95396.81
2023-02-11T12:04:25.615Z,95386.44
2023-02-11T12:07:19.888Z,95376.66
2023-02-11T12:09:55.577Z,95377.84
2023-02-11T12:13:03.161Z,95373.66
2023-02-11T12:15:36.678Z,95370.75
2023-02-11T12:18:06.121Z,95367.59
2023-02-11T12:20:58.751Z,95362.81
2023-02-11T12:23:59.188Z,95356.59
2023-02-11T12:27:10.663Z,95346.13
2023-02-11T12:30:24.835Z,95349.19
2023-02-11T12:33:21.060Z,95342.41
2023-02-11T12:35:56.131Z,95336.44
2023-02-11T12:42:35.486Z,95320.78
2023-02-11T12:45:16.729Z,95332.16
2023-02-11T12:48:01.006Z,95323.19
2023-02-11T12:50:36.825Z,95313.38
2023-02-11T12:53:41.952Z,95319.41
2023-02-11T12:56:14.959Z,95308.13
2023-02-11T12:58:45.722Z,95303.47
2023-02-11T13:01:27.915Z,95309.66
2023-02-11T13:04:48.195Z,95307.06
2023-02-11T13:07:21.636Z,95306.00
2023-02-11T13:10:02.131Z,95307.22
2023-02-11T13:12:50.834Z,95301.31
2023-02-11T13:15:17.717Z,95296.47
2023-02-11T13:17:53.851Z,95290.03
2023-02-11T13:20:32.532Z,95293.13
2023-02-11T13:23:12.741Z,95291.56
2023-02-11T13:25:53.224Z,95295.72
2023-02-11T13:28:56.440Z,95287.28
2023-02-11T13:31:27.100Z,95298.66
2023-02-11T13:33:53.921Z,95289.09
2023-02-11T13:36:33.190Z,95285.16
2023-02-11T13:39:03.774Z,95288.63
2023-02-11T13:41:34.553Z,95278.81
2023-02-11T13:44:10.938Z,95281.81
2023-02-11T13:46:59.630Z,95274.91
2023-02-11T13:49:33.318Z,95271.06
2023-02-11T13:52:03.330Z,95279.41
2023-02-11T13:54:34.111Z,95275.53
2023-02-11T13:57:26.187Z,95270.47
2023-02-11T13:59:58.936Z,95264.97
2023-02-11T14:02:47.133Z,95259.63
2023-02-11T14:05:41.566Z,95255.06
2023-02-11T14:08:29.846Z,95257.09
2023-02-11T14:11:08.437Z,95248.06
2023-02-11T14:13:37.133Z,95259.53
2023-02-11T14:16:10.243Z,95259.84
2023-02-11T14:18:39.351Z,95254.78
2023-02-11T14:21:23.095Z,95251.09
2023-02-11T14:23:53.346Z,95243.81
2023-02-11T14:26:20.136Z,95240.31
2023-02-11T14:29:19.980Z,95255.34
2023-02-11T14:32:25.092Z,95247.91
2023-02-11T14:35:18.352Z,95240.13
2023-02-11T14:38:07.466Z,95244.72
2023-02-11T14:40:49.342Z,95251.03
2023-02-11T14:43:24.574Z,95250.94
2023-02-11T14:45:55.864Z,95241.81
2023-02-11T14:48:29.792Z,95248.53
2023-02-11T14:51:13.676Z,95246.63
2023-02-11T14:53:45.761Z,95245.88
2023-02-11T14:56:27.934Z,95253.59
2023-02-11T14:58:55.751Z,95249.16
2023-02-11T15:01:33.952Z,95248.50
2023-02-11T15:04:05.394Z,95248.69
2023-02-11T15:06:41.268Z,95249.97
2023-02-11T15:09:25.596Z,95245.78
2023-02-11T15:11:52.794Z,95250.31
2023-02-11T15:14:24.517Z,95243.19
2023-02-11T15:16:53.871Z,95234.94
2023-02-11T15:19:26.799Z,95233.75
2023-02-11T15:21:54.200Z,95223.69
2023-02-11T15:24:32.218Z,95229.84
2023-02-11T15:27:00.321Z,95218.97
2023-02-11T15:29:42.311Z,95210.31
2023-02-11T15:32:23.312Z,95208.16
2023-02-11T15:34:52.798Z,95210.03
2023-02-11T15:37:30.196Z,95225.72
2023-02-11T15:40:15.155Z,95215.50
2023-02-11T15:42:56.181Z,95216.22
2023-02-11T15:45:46.082Z,95217.13
2023-02-11T15:48:16.649Z,95212.72
2023-02-11T15:50:51.369Z,95219.47
2023-02-11T15:53:23.319Z,95219.66
2023-02-11T15:55:52.986Z,95221.78
2023-02-11T15:58:25.205Z,95218.81
2023-02-11T16:00:59.944Z,95221.38
2023-02-11T16:03:32.511Z,95215.56
2023-02-11T16:06:17.612Z,95230.88
2023-02-11T16:09:01.043Z,95229.44
2023-02-11T16:11:33.329Z,95227.59
2023-02-11T16:14:01.997Z,95226.63
2023-02-11T16:16:34.668Z,95234.53
2023-02-11T16:19:05.179Z,95231.81
2023-02-11T16:21:36.310Z,95235.75
2023-02-11T16:24:03.965Z,95230.00
2023-02-11T16:26:30.556Z,95235.00
2023-02-11T16:29:18.689Z,95239.66
2023-02-11T16:31:47.636Z,95244.88
2023-02-11T16:34:20.921Z,95240.75
2023-02-11T16:36:48.742Z,95239.16
2023-02-11T16:39:16.823Z,95243.63
2023-02-11T16:41:43.643Z,95242.56
2023-02-11T16:44:10.312Z,95246.53
2023-02-11T16:46:37.644Z,95246.53
2023-02-11T16:49:27.415Z,95240.72
2023-02-11T16:51:58.532Z,95244.41
2023-02-11T16:54:25.149Z,95247.81
2023-02-11T16:56:51.880Z,95249.09
2023-02-11T16:59:18.517Z,95239.63
2023-02-11T17:01:45.801Z,95245.44
2023-02-11T17:04:33.686Z,95248.13
2023-02-11T17:07:00.327Z,95250.78
2023-02-11T17:09:30.531Z,95246.28
2023-02-11T17:11:57.839Z,95239.19
2023-02-11T17:14:24.663Z,95234.44
2023-02-11T17:16:51.742Z,95227.03
2023-02-11T17:19:21.121Z,95225.97
2023-02-11T17:21:51.259Z,95228.06
2023-02-11T17:24:19.451Z,95226.28
2023-02-11T17:26:46.665Z,95223.88
2023-02-11T17:29:19.396Z,95223.91
2023-02-11T17:31:46.192Z,95229.69
2023-02-11T17:34:13.048Z,95230.75
2023-02-11T17:36:41.466Z,95241.81
2023-02-11T17:39:08.479Z,95234.72
2023-02-11T17:41:37.145Z,95236.00
2023-02-11T17:44:04.585Z,95241.56
2023-02-11T17:46:32.282Z,95237.59
2023-02-11T17:48:59.690Z,95241.53
2023-02-11T17:51:35.023Z,95241.53
2023-02-11T17:54:14.298Z,95250.50
2023-02-11T17:56:41.915Z,95244.47
2023-02-11T17:59:10.357Z,95244.97
2023-02-11T18:01:38.714Z,95246.81
2023-02-11T18:04:06.773Z,95253.41
2023-02-11T18:06:34.187Z,95258.63
2023-02-11T18:09:04.192Z,95268.69
2023-02-11T18:11:33.323Z,95269.22
2023-02-11T18:14:01.697Z,95276.09
2023-02-11T18:16:30.078Z,95268.16
2023-02-11T18:19:03.568Z,95262.88
2023-02-11T18:21:30.502Z,95259.22
2023-02-11T18:24:06.426Z,95250.72
2023-02-11T18:26:34.415Z,95259.22
2023-02-11T18:29:01.366Z,95255.25
2023-02-11T18:31:29.066Z,95251.31
2023-02-11T18:33:55.935Z,95241.03
2023-02-11T18:36:25.432Z,95241.81
2023-02-11T18:38:53.713Z,95234.88
2023-02-11T18:41:20.843Z,95224.28
2023-02-11T18:43:47.502Z,95230.69
2023-02-11T18:46:15.190Z,95224.44
2023-02-11T18:48:42.310Z,95215.44
2023-02-11T18:51:11.399Z,95211.22
2023-02-11T18:53:38.082Z,95220.69
2023-02-11T18:56:13.886Z,95221.25
2023-02-11T18:58:40.786Z,95217.56
2023-02-11T19:01:11.739Z,95213.63
2023-02-11T19:03:38.398Z,95214.66
2023-02-11T19:06:05.319Z,95216.38
2023-02-11T19:08:32.113Z,95220.38
2023-02-11T19:10:58.848Z,95220.91
2023-02-11T19:13:25.817Z,95220.19
2023-02-11T19:15:52.653Z,95222.28
2023-02-11T19:18:19.432Z,95209.38
2023-02-11T19:20:46.163Z,95223.84
2023-02-11T19:23:12.739Z,95221.41
2023-02-11T19:25:46.620Z,95219.88
2023-02-11T19:28:13.931Z,95206.34
2023-02-11T19:30:41.028Z,95205.09
2023-02-11T19:33:10.046Z,95201.16
2023-02-11T19:35:36.886Z,95200.63
2023-02-11T19:38:06.354Z,95197.44
2023-02-11T19:40:33.267Z,95194.75
2023-02-11T19:43:00.008Z,95192.69
2023-02-11T19:45:27.092Z,95196.47
2023-02-11T19:47:57.848Z,95193.00
2023-02-11T19:50:24.647Z,95189.81
2023-02-11T19:52:51.299Z,95182.59
2023-02-11T19:55:20.318Z,95179.50
2023-02-11T19:57:47.025Z,95181.19
2023-02-11T20:00:14.232Z,95182.53
2023-02-11T20:02:40.900Z,95178.13
2023-02-11T20:05:07.925Z,95175.63
2023-02-11T20:07:35.289Z,95172.09
2023-02-11T20:10:02.998Z,95165.84
2023-02-11T20:12:29.649Z,95169.91
2023-02-11T20:14:56.348Z,95168.25
2023-02-11T20:17:23.035Z,95162.38
2023-02-11T20:19:49.845Z,95167.44
2023-02-11T20:22:16.472Z,95152.22
2023-02-11T20:24:43.157Z,95160.41
2023-02-11T20:27:11.532Z,95160.66
2023-02-11T20:29:38.867Z,95162.75
2023-02-11T20:32:06.657Z,95160.66
2023-02-11T20:34:34.441Z,95162.75
2023-02-11T20:37:02.298Z,95153.66
2023-02-11T20:39:29.021Z,95146.16
2023-02-11T20:41:57.665Z,95142.63
2023-02-11T20:44:24.442Z,95130.78
2023-02-11T20:46:51.722Z,95131.66
2023-02-11T20:49:21.044Z,95129.25
2023-02-11T20:51:48.567Z,95119.28
2023-02-11T20:54:17.870Z,95120.75
2023-02-11T20:56:47.962Z,95121.44
2023-02-11T20:59:16.664Z,95116.28
2023-02-11T21:01:46.368Z,95113.09
2023-02-11T21:04:17.305Z,95121.56
2023-02-11T21:06:56.299Z,95118.91
2023-02-11T21:09:25.457Z,95100.09
2023-02-11T21:11:53.576Z,95099.59
2023-02-11T21:14:22.586Z,95095.66
2023-02-11T21:16:49.781Z,95083.28
2023-02-11T21:19:16.394Z,95088.00
2023-02-11T21:21:43.242Z,95083.03
2023-02-11T21:24:12.871Z,95071.56
2023-02-11T21:26:40.563Z,95068.00
2023-02-11T21:29:08.631Z,95069.06
2023-02-11T21:31:36.529Z,95064.09
2023-02-11T21:34:04.288Z,95069.72
2023-02-11T21:36:30.997Z,95078.63
2023-02-11T21:39:04.395Z,95073.88
2023-02-11T21:41:31.034Z,95061.41
2023-02-11T21:43:57.719Z,95071.41
2023-02-11T21:46:24.926Z,95069.59
2023-02-11T21:48:52.311Z,95067.50
2023-02-11T21:51:21.696Z,95066.13
2023-02-11T21:53:48.494Z,95077.44
2023-02-11T21:56:17.678Z,95066.91
2023-02-11T21:58:45.749Z,95066.56
2023-02-11T22:01:20.710Z,95077.91
2023-02-11T22:03:47.918Z,95059.69
2023-02-11T22:06:17.836Z,95063.53
2023-02-11T22:08:44.531Z,95060.78
2023-02-11T22:11:12.965Z,95074.59
2023-02-11T22:13:40.630Z,95068.19
2023-02-11T22:16:11.563Z,95083.59
2023-02-11T22:18:39.042Z,95086.19
2023-02-11T22:21:12.273Z,95090.22
2023-02-11T22:23:39.694Z,95094.66
2023-02-11T22:26:09.609Z,95088.41
2023-02-11T22:28:38.869Z,95089.69
2023-02-11T22:31:06.178Z,95084.81
2023-02-11T22:33:33.105Z,95093.81
2023-02-11T22:36:02.582Z,95082.97
2023-02-11T22:38:31.231Z,95081.00
2023-02-11T22:40:59.190Z,95090.72
2023-02-11T22:43:26.934Z,95093.94
2023-02-11T22:45:56.450Z,95090.31
2023-02-11T22:48:23.387Z,95086.19
2023-02-11T22:50:50.064Z,95085.69
2023-02-11T22:53:16.715Z,95084.63
2023-02-11T22:55:43.582Z,95073.00
2023-02-11T22:58:10.809Z,95068.06
2023-02-11T23:00:41.770Z,95073.47
2023-02-11T23:03:10.230Z,95086.22
2023-02-11T23:05:43.121Z,95081.94
2023-02-11T23:08:11.250Z,95091.34
2023-02-11T23:10:39.784Z,95084.09
2023-02-11T23:13:07.460Z,95092.84
2023-02-11T23:15:34.467Z,95078.31
2023-02-11T23:18:01.145Z,95072.06
2023-02-11T23:20:27.798Z,95071.03
2023-02-11T23:22:54.413Z,95073.16
2023-02-11T23:25:21.192Z,95076.00
2023-02-11T23:27:47.889Z,95067.34
2023-02-11T23:30:14.788Z,95066.34
2023-02-11T23:32:41.438Z,95064.63
2023-02-11T23:35:08.302Z,95057.00
2023-02-11T23:37:35.137Z,95060.75
2023-02-11T23:40:02.223Z,95059.88
2023-02-11T23:42:29.235Z,95069.88
2023-02-11T23:44:55.937Z,95067.38
2023-02-11T23:47:22.580Z,95065.78
2023-02-11T23:49:49.171Z,95063.06
2023-02-11T23:52:15.859Z,95061.50
2023-02-11T23:54:43.428Z,95063.53
2023-02-11T23:57:10.132Z,95059.19
2023-02-11T23:59:36.905Z,95060.97
